sensor_id;sensor_type;location;lat;lon;timestamp;temperature;humidity
75985;DHT22;65033;44.660;37.758;2023-05-10T00:00:29;11.16;80.21
75985;DHT22;65033;44.660;37.758;2023-05-10T00:01:36;11.14;80.66
75985;DHT22;65033;44.660;37.758;2023-05-10T00:02:45;11.10;81.09
75985;DHT22;65033;44.660;37.758;2023-05-10T00:04:00;11.08;81.16
75985;DHT22;65033;44.660;37.758;2023-05-10T00:05:09;11.04;81.20
75985;DHT22;65033;44.660;37.758;2023-05-10T00:06:14;11.01;81.09
75985;DHT22;65033;44.660;37.758;2023-05-10T00:07:28;10.99;81.44
75985;DHT22;65033;44.660;37.758;2023-05-10T00:08:41;10.99;81.52
75985;DHT22;65033;44.660;37.758;2023-05-10T00:09:48;10.98;81.94
75985;DHT22;65033;44.660;37.758;2023-05-10T00:10:59;10.97;81.81
75985;DHT22;65033;44.660;37.758;2023-05-10T00:12:04;10.96;81.85
75985;DHT22;65033;44.660;37.758;2023-05-10T00:13:11;10.94;81.79
75985;DHT22;65033;44.660;37.758;2023-05-10T00:14:22;10.97;82.24
75985;DHT22;65033;44.660;37.758;2023-05-10T00:15:41;10.97;81.97
75985;DHT22;65033;44.660;37.758;2023-05-10T00:16:47;10.96;81.87
75985;DHT22;65033;44.660;37.758;2023-05-10T00:18:05;10.98;81.97
75985;DHT22;65033;44.660;37.758;2023-05-10T00:19:20;10.98;82.10
75985;DHT22;65033;44.660;37.758;2023-05-10T00:20:26;10.96;82.06
75985;DHT22;65033;44.660;37.758;2023-05-10T00:21:48;10.93;82.07
75985;DHT22;65033;44.660;37.758;2023-05-10T00:22:54;10.93;82.35
75985;DHT22;65033;44.660;37.758;2023-05-10T00:24:01;10.88;82.33
75985;DHT22;65033;44.660;37.758;2023-05-10T00:25:35;10.86;82.17
75985;DHT22;65033;44.660;37.758;2023-05-10T00:26:45;10.87;82.18
75985;DHT22;65033;44.660;37.758;2023-05-10T00:27:59;10.86;82.27
75985;DHT22;65033;44.660;37.758;2023-05-10T00:29:12;10.86;81.99
75985;DHT22;65033;44.660;37.758;2023-05-10T00:30:18;10.85;81.77
75985;DHT22;65033;44.660;37.758;2023-05-10T00:31:22;10.84;81.97
75985;DHT22;65033;44.660;37.758;2023-05-10T00:32:28;10.84;82.26
75985;DHT22;65033;44.660;37.758;2023-05-10T00:33:35;10.83;82.42
75985;DHT22;65033;44.660;37.758;2023-05-10T00:34:40;10.85;82.34
75985;DHT22;65033;44.660;37.758;2023-05-10T00:35:49;10.83;82.36
75985;DHT22;65033;44.660;37.758;2023-05-10T00:36:56;10.84;82.06
75985;DHT22;65033;44.660;37.758;2023-05-10T00:38:04;10.84;82.12
75985;DHT22;65033;44.660;37.758;2023-05-10T00:39:11;10.83;82.21
75985;DHT22;65033;44.660;37.758;2023-05-10T00:40:23;10.81;82.28
75985;DHT22;65033;44.660;37.758;2023-05-10T00:41:36;10.80;82.38
75985;DHT22;65033;44.660;37.758;2023-05-10T00:42:48;10.80;82.25
75985;DHT22;65033;44.660;37.758;2023-05-10T00:44:00;10.78;82.15
75985;DHT22;65033;44.660;37.758;2023-05-10T00:45:15;10.75;81.90
75985;DHT22;65033;44.660;37.758;2023-05-10T00:46:29;10.73;82.07
75985;DHT22;65033;44.660;37.758;2023-05-10T00:47:36;10.71;82.04
75985;DHT22;65033;44.660;37.758;2023-05-10T00:48:44;10.70;82.13
75985;DHT22;65033;44.660;37.758;2023-05-10T00:49:52;10.69;82.23
75985;DHT22;65033;44.660;37.758;2023-05-10T00:50:57;10.64;82.37
75985;DHT22;65033;44.660;37.758;2023-05-10T00:52:19;10.63;82.47
75985;DHT22;65033;44.660;37.758;2023-05-10T00:53:23;10.59;82.87
75985;DHT22;65033;44.660;37.758;2023-05-10T00:54:33;10.55;83.14
75985;DHT22;65033;44.660;37.758;2023-05-10T00:55:44;10.53;83.01
75985;DHT22;65033;44.660;37.758;2023-05-10T00:56:57;10.48;82.80
75985;DHT22;65033;44.660;37.758;2023-05-10T00:58:11;10.45;82.90
75985;DHT22;65033;44.660;37.758;2023-05-10T00:59:24;10.42;83.08
75985;DHT22;65033;44.660;37.758;2023-05-10T01:00:38;10.39;83.24
75985;DHT22;65033;44.660;37.758;2023-05-10T01:01:49;10.35;83.22
75985;DHT22;65033;44.660;37.758;2023-05-10T01:03:08;10.34;83.00
75985;DHT22;65033;44.660;37.758;2023-05-10T01:04:30;10.33;83.20
75985;DHT22;65033;44.660;37.758;2023-05-10T01:05:41;10.29;83.13
75985;DHT22;65033;44.660;37.758;2023-05-10T01:06:50;10.27;83.13
75985;DHT22;65033;44.660;37.758;2023-05-10T01:08:03;10.25;82.66
75985;DHT22;65033;44.660;37.758;2023-05-10T01:09:09;10.21;82.85
75985;DHT22;65033;44.660;37.758;2023-05-10T01:10:21;10.21;82.80
75985;DHT22;65033;44.660;37.758;2023-05-10T01:11:27;10.16;82.55
75985;DHT22;65033;44.660;37.758;2023-05-10T01:12:48;10.14;82.68
75985;DHT22;65033;44.660;37.758;2023-05-10T01:14:12;10.12;82.94
75985;DHT22;65033;44.660;37.758;2023-05-10T01:15:26;10.11;82.83
75985;DHT22;65033;44.660;37.758;2023-05-10T01:16:38;10.08;83.02
75985;DHT22;65033;44.660;37.758;2023-05-10T01:17:46;10.07;82.93
75985;DHT22;65033;44.660;37.758;2023-05-10T01:18:52;10.04;83.10
75985;DHT22;65033;44.660;37.758;2023-05-10T01:19:55;10.01;83.04
75985;DHT22;65033;44.660;37.758;2023-05-10T01:21:10;9.98;83.00
75985;DHT22;65033;44.660;37.758;2023-05-10T01:22:43;9.94;83.23
75985;DHT22;65033;44.660;37.758;2023-05-10T01:24:14;9.93;83.51
75985;DHT22;65033;44.660;37.758;2023-05-10T01:25:53;9.92;83.69
75985;DHT22;65033;44.660;37.758;2023-05-10T01:27:15;9.95;83.97
75985;DHT22;65033;44.660;37.758;2023-05-10T01:28:49;9.95;83.90
75985;DHT22;65033;44.660;37.758;2023-05-10T01:32:18;9.90;83.38
75985;DHT22;65033;44.660;37.758;2023-05-10T01:33:30;9.88;83.36
75985;DHT22;65033;44.660;37.758;2023-05-10T01:34:59;9.85;83.49
75985;DHT22;65033;44.660;37.758;2023-05-10T01:36:08;9.82;83.40
75985;DHT22;65033;44.660;37.758;2023-05-10T01:37:16;9.80;83.52
75985;DHT22;65033;44.660;37.758;2023-05-10T01:38:39;9.75;84.11
75985;DHT22;65033;44.660;37.758;2023-05-10T01:39:55;9.70;83.68
75985;DHT22;65033;44.660;37.758;2023-05-10T01:41:11;9.67;84.06
75985;DHT22;65033;44.660;37.758;2023-05-10T01:42:26;9.67;83.73
75985;DHT22;65033;44.660;37.758;2023-05-10T01:43:39;9.66;84.04
75985;DHT22;65033;44.660;37.758;2023-05-10T01:44:58;9.64;84.53
75985;DHT22;65033;44.660;37.758;2023-05-10T01:46:10;9.62;83.87
75985;DHT22;65033;44.660;37.758;2023-05-10T01:47:29;9.57;84.35
75985;DHT22;65033;44.660;37.758;2023-05-10T01:48:42;9.55;83.98
75985;DHT22;65033;44.660;37.758;2023-05-10T01:50:09;9.52;84.05
75985;DHT22;65033;44.660;37.758;2023-05-10T01:51:27;9.48;84.28
75985;DHT22;65033;44.660;37.758;2023-05-10T01:52:41;9.47;84.44
75985;DHT22;65033;44.660;37.758;2023-05-10T01:53:53;9.45;84.37
75985;DHT22;65033;44.660;37.758;2023-05-10T01:55:09;9.45;84.29
75985;DHT22;65033;44.660;37.758;2023-05-10T01:56:32;9.42;84.32
75985;DHT22;65033;44.660;37.758;2023-05-10T01:57:43;9.44;84.45
75985;DHT22;65033;44.660;37.758;2023-05-10T01:59:07;9.46;84.24
75985;DHT22;65033;44.660;37.758;2023-05-10T02:00:23;9.46;84.55
75985;DHT22;65033;44.660;37.758;2023-05-10T02:01:30;9.45;84.60
75985;DHT22;65033;44.660;37.758;2023-05-10T02:02:40;9.47;84.39
75985;DHT22;65033;44.660;37.758;2023-05-10T02:03:51;9.50;84.04
75985;DHT22;65033;44.660;37.758;2023-05-10T02:04:58;9.52;84.04
75985;DHT22;65033;44.660;37.758;2023-05-10T02:06:08;9.52;84.16
75985;DHT22;65033;44.660;37.758;2023-05-10T02:07:16;9.56;84.00
75985;DHT22;65033;44.660;37.758;2023-05-10T02:08:24;9.62;83.56
75985;DHT22;65033;44.660;37.758;2023-05-10T02:09:42;9.65;83.16
75985;DHT22;65033;44.660;37.758;2023-05-10T02:10:59;9.69;82.87
75985;DHT22;65033;44.660;37.758;2023-05-10T02:12:20;9.76;82.72
75985;DHT22;65033;44.660;37.758;2023-05-10T02:13:30;9.80;82.36
75985;DHT22;65033;44.660;37.758;2023-05-10T02:14:38;9.84;82.10
75985;DHT22;65033;44.660;37.758;2023-05-10T02:15:47;9.86;81.98
75985;DHT22;65033;44.660;37.758;2023-05-10T02:16:59;9.92;81.97
75985;DHT22;65033;44.660;37.758;2023-05-10T02:18:17;9.95;81.75
75985;DHT22;65033;44.660;37.758;2023-05-10T02:19:22;9.98;81.62
75985;DHT22;65033;44.660;37.758;2023-05-10T02:20:27;10.00;81.49
75985;DHT22;65033;44.660;37.758;2023-05-10T02:21:34;10.01;81.25
75985;DHT22;65033;44.660;37.758;2023-05-10T02:22:43;10.04;81.72
75985;DHT22;65033;44.660;37.758;2023-05-10T02:23:52;10.05;80.95
75985;DHT22;65033;44.660;37.758;2023-05-10T02:24:59;10.04;81.03
75985;DHT22;65033;44.660;37.758;2023-05-10T02:26:09;9.99;81.10
75985;DHT22;65033;44.660;37.758;2023-05-10T02:27:15;9.93;81.44
75985;DHT22;65033;44.660;37.758;2023-05-10T02:28:21;9.86;81.43
75985;DHT22;65033;44.660;37.758;2023-05-10T02:29:33;9.83;81.94
75985;DHT22;65033;44.660;37.758;2023-05-10T02:30:39;9.80;81.77
75985;DHT22;65033;44.660;37.758;2023-05-10T02:31:45;9.76;81.96
75985;DHT22;65033;44.660;37.758;2023-05-10T02:32:53;9.74;82.04
75985;DHT22;65033;44.660;37.758;2023-05-10T02:34:16;9.72;82.27
75985;DHT22;65033;44.660;37.758;2023-05-10T02:35:26;9.70;82.24
75985;DHT22;65033;44.660;37.758;2023-05-10T02:36:36;9.70;82.52
75985;DHT22;65033;44.660;37.758;2023-05-10T02:37:41;9.74;82.89
75985;DHT22;65033;44.660;37.758;2023-05-10T02:38:51;9.71;82.31
75985;DHT22;65033;44.660;37.758;2023-05-10T02:40:00;9.69;82.33
75985;DHT22;65033;44.660;37.758;2023-05-10T02:41:11;9.70;82.37
75985;DHT22;65033;44.660;37.758;2023-05-10T02:42:28;9.69;82.23
75985;DHT22;65033;44.660;37.758;2023-05-10T02:43:38;9.68;82.29
75985;DHT22;65033;44.660;37.758;2023-05-10T02:45:07;9.68;82.31
75985;DHT22;65033;44.660;37.758;2023-05-10T02:46:14;9.67;82.43
75985;DHT22;65033;44.660;37.758;2023-05-10T02:47:21;9.64;82.67
75985;DHT22;65033;44.660;37.758;2023-05-10T02:48:26;9.64;82.77
75985;DHT22;65033;44.660;37.758;2023-05-10T02:49:42;9.62;82.78
75985;DHT22;65033;44.660;37.758;2023-05-10T02:50:57;9.60;83.00
75985;DHT22;65033;44.660;37.758;2023-05-10T02:52:23;9.57;83.10
75985;DHT22;65033;44.660;37.758;2023-05-10T02:53:46;9.57;83.13
75985;DHT22;65033;44.660;37.758;2023-05-10T02:54:55;9.56;83.10
75985;DHT22;65033;44.660;37.758;2023-05-10T02:56:14;9.57;83.26
75985;DHT22;65033;44.660;37.758;2023-05-10T02:57:28;9.61;83.23
75985;DHT22;65033;44.660;37.758;2023-05-10T02:58:43;9.61;83.18
75985;DHT22;65033;44.660;37.758;2023-05-10T02:59:50;9.62;83.23
75985;DHT22;65033;44.660;37.758;2023-05-10T03:00:56;9.64;83.01
75985;DHT22;65033;44.660;37.758;2023-05-10T03:02:08;9.64;83.00
75985;DHT22;65033;44.660;37.758;2023-05-10T03:03:13;9.64;82.92
75985;DHT22;65033;44.660;37.758;2023-05-10T03:04:24;9.64;82.96
75985;DHT22;65033;44.660;37.758;2023-05-10T03:05:35;9.65;82.90
75985;DHT22;65033;44.660;37.758;2023-05-10T03:06:52;9.66;82.83
75985;DHT22;65033;44.660;37.758;2023-05-10T03:07:56;9.70;82.68
75985;DHT22;65033;44.660;37.758;2023-05-10T03:09:02;9.75;82.58
75985;DHT22;65033;44.660;37.758;2023-05-10T03:10:07;9.76;82.37
75985;DHT22;65033;44.660;37.758;2023-05-10T03:11:29;9.77;82.58
75985;DHT22;65033;44.660;37.758;2023-05-10T03:12:48;9.79;82.57
75985;DHT22;65033;44.660;37.758;2023-05-10T03:14:10;9.80;82.65
75985;DHT22;65033;44.660;37.758;2023-05-10T03:16:45;9.85;82.52
75985;DHT22;65033;44.660;37.758;2023-05-10T03:18:03;9.88;82.60
75985;DHT22;65033;44.660;37.758;2023-05-10T03:19:17;9.89;82.57
75985;DHT22;65033;44.660;37.758;2023-05-10T03:20:36;9.89;82.41
75985;DHT22;65033;44.660;37.758;2023-05-10T03:21:47;9.92;82.46
75985;DHT22;65033;44.660;37.758;2023-05-10T03:23:02;9.93;82.27
75985;DHT22;65033;44.660;37.758;2023-05-10T03:24:20;9.96;82.30
75985;DHT22;65033;44.660;37.758;2023-05-10T03:25:33;10.00;82.06
75985;DHT22;65033;44.660;37.758;2023-05-10T03:26:43;10.01;81.92
75985;DHT22;65033;44.660;37.758;2023-05-10T03:28:01;10.05;82.01
75985;DHT22;65033;44.660;37.758;2023-05-10T03:29:11;10.06;81.99
75985;DHT22;65033;44.660;37.758;2023-05-10T03:30:20;10.09;81.78
75985;DHT22;65033;44.660;37.758;2023-05-10T03:31:25;10.10;81.84
75985;DHT22;65033;44.660;37.758;2023-05-10T03:32:31;10.13;81.73
75985;DHT22;65033;44.660;37.758;2023-05-10T03:33:46;10.18;81.68
75985;DHT22;65033;44.660;37.758;2023-05-10T03:34:56;10.21;81.70
75985;DHT22;65033;44.660;37.758;2023-05-10T03:36:13;11.04;95.43
75985;DHT22;65033;44.660;37.758;2023-05-10T03:37:20;11.12;85.68
75985;DHT22;65033;44.660;37.758;2023-05-10T03:38:27;11.16;79.61
75985;DHT22;65033;44.660;37.758;2023-05-10T03:39:36;11.13;78.44
75985;DHT22;65033;44.660;37.758;2023-05-10T03:40:48;11.13;78.22
75985;DHT22;65033;44.660;37.758;2023-05-10T03:42:07;11.20;77.56
75985;DHT22;65033;44.660;37.758;2023-05-10T03:43:16;11.23;77.55
75985;DHT22;65033;44.660;37.758;2023-05-10T03:44:54;11.25;78.01
75985;DHT22;65033;44.660;37.758;2023-05-10T03:46:07;11.28;77.36
75985;DHT22;65033;44.660;37.758;2023-05-10T03:47:17;11.29;77.30
75985;DHT22;65033;44.660;37.758;2023-05-10T03:48:29;11.25;77.46
75985;DHT22;65033;44.660;37.758;2023-05-10T03:49:35;11.23;77.66
75985;DHT22;65033;44.660;37.758;2023-05-10T03:50:45;11.25;77.23
75985;DHT22;65033;44.660;37.758;2023-05-10T03:51:51;11.31;76.98
75985;DHT22;65033;44.660;37.758;2023-05-10T03:52:58;11.37;76.76
75985;DHT22;65033;44.660;37.758;2023-05-10T03:54:06;11.42;76.20
75985;DHT22;65033;44.660;37.758;2023-05-10T03:55:13;11.49;76.21
75985;DHT22;65033;44.660;37.758;2023-05-10T03:56:18;11.55;75.88
75985;DHT22;65033;44.660;37.758;2023-05-10T03:57:23;11.63;75.62
75985;DHT22;65033;44.660;37.758;2023-05-10T03:58:34;11.70;75.38
75985;DHT22;65033;44.660;37.758;2023-05-10T03:59:43;11.73;75.25
75985;DHT22;65033;44.660;37.758;2023-05-10T04:00:51;11.73;75.02
75985;DHT22;65033;44.660;37.758;2023-05-10T04:02:04;11.73;75.22
75985;DHT22;65033;44.660;37.758;2023-05-10T04:03:11;11.74;74.96
75985;DHT22;65033;44.660;37.758;2023-05-10T04:04:17;11.76;75.33
75985;DHT22;65033;44.660;37.758;2023-05-10T04:05:29;11.84;75.20
75985;DHT22;65033;44.660;37.758;2023-05-10T04:06:38;11.91;74.73
75985;DHT22;65033;44.660;37.758;2023-05-10T04:07:57;12.01;74.73
75985;DHT22;65033;44.660;37.758;2023-05-10T04:09:06;12.05;74.23
75985;DHT22;65033;44.660;37.758;2023-05-10T04:10:13;12.15;73.77
75985;DHT22;65033;44.660;37.758;2023-05-10T04:11:16;12.20;72.85
75985;DHT22;65033;44.660;37.758;2023-05-10T04:12:21;12.29;72.77
75985;DHT22;65033;44.660;37.758;2023-05-10T04:13:27;12.34;71.92
75985;DHT22;65033;44.660;37.758;2023-05-10T04:14:33;12.33;72.25
75985;DHT22;65033;44.660;37.758;2023-05-10T04:15:37;12.31;73.15
75985;DHT22;65033;44.660;37.758;2023-05-10T04:16:41;12.35;72.53
75985;DHT22;65033;44.660;37.758;2023-05-10T04:17:47;12.40;72.45
75985;DHT22;65033;44.660;37.758;2023-05-10T04:18:51;12.42;72.58
75985;DHT22;65033;44.660;37.758;2023-05-10T04:20:10;12.47;71.51
75985;DHT22;65033;44.660;37.758;2023-05-10T04:21:19;12.53;71.76
75985;DHT22;65033;44.660;37.758;2023-05-10T04:22:23;12.57;71.29
75985;DHT22;65033;44.660;37.758;2023-05-10T04:23:29;12.58;71.22
75985;DHT22;65033;44.660;37.758;2023-05-10T04:24:46;12.63;70.08
75985;DHT22;65033;44.660;37.758;2023-05-10T04:26:01;12.70;69.50
75985;DHT22;65033;44.660;37.758;2023-05-10T04:27:09;12.74;69.13
75985;DHT22;65033;44.660;37.758;2023-05-10T04:28:31;12.77;68.94
75985;DHT22;65033;44.660;37.758;2023-05-10T04:29:48;12.82;68.33
75985;DHT22;65033;44.660;37.758;2023-05-10T04:31:04;12.84;67.97
75985;DHT22;65033;44.660;37.758;2023-05-10T04:32:31;12.85;68.52
75985;DHT22;65033;44.660;37.758;2023-05-10T04:33:39;12.89;68.75
75985;DHT22;65033;44.660;37.758;2023-05-10T04:34:52;12.89;68.88
75985;DHT22;65033;44.660;37.758;2023-05-10T04:35:59;13.96;95.13
75985;DHT22;65033;44.660;37.758;2023-05-10T04:37:02;14.72;98.90
75985;DHT22;65033;44.660;37.758;2023-05-10T04:38:06;14.64;75.65
75985;DHT22;65033;44.660;37.758;2023-05-10T04:39:26;14.69;64.12
75985;DHT22;65033;44.660;37.758;2023-05-10T04:40:35;14.62;63.78
75985;DHT22;65033;44.660;37.758;2023-05-10T04:41:58;14.42;65.06
75985;DHT22;65033;44.660;37.758;2023-05-10T04:43:05;14.32;64.20
75985;DHT22;65033;44.660;37.758;2023-05-10T04:44:27;14.19;62.76
75985;DHT22;65033;44.660;37.758;2023-05-10T04:45:47;14.06;62.46
75985;DHT22;65033;44.660;37.758;2023-05-10T04:46:51;13.88;63.58
75985;DHT22;65033;44.660;37.758;2023-05-10T04:48:03;13.75;62.76
75985;DHT22;65033;44.660;37.758;2023-05-10T04:49:28;13.65;63.69
75985;DHT22;65033;44.660;37.758;2023-05-10T04:50:39;13.61;63.73
75985;DHT22;65033;44.660;37.758;2023-05-10T04:51:43;13.55;64.12
75985;DHT22;65033;44.660;37.758;2023-05-10T04:52:50;13.48;63.84
75985;DHT22;65033;44.660;37.758;2023-05-10T04:53:56;13.47;64.01
75985;DHT22;65033;44.660;37.758;2023-05-10T04:55:10;13.43;63.89
75985;DHT22;65033;44.660;37.758;2023-05-10T04:56:25;13.41;64.02
75985;DHT22;65033;44.660;37.758;2023-05-10T04:57:43;13.41;64.60
75985;DHT22;65033;44.660;37.758;2023-05-10T04:59:04;13.41;63.95
75985;DHT22;65033;44.660;37.758;2023-05-10T05:00:18;13.43;64.13
75985;DHT22;65033;44.660;37.758;2023-05-10T05:01:34;13.41;65.00
75985;DHT22;65033;44.660;37.758;2023-05-10T05:02:42;13.41;64.91
75985;DHT22;65033;44.660;37.758;2023-05-10T05:03:50;13.43;64.34
75985;DHT22;65033;44.660;37.758;2023-05-10T05:04:57;13.43;64.04
75985;DHT22;65033;44.660;37.758;2023-05-10T05:06:14;13.44;63.64
75985;DHT22;65033;44.660;37.758;2023-05-10T05:07:50;14.27;89.73
75985;DHT22;65033;44.660;37.758;2023-05-10T05:09:04;14.72;67.48
75985;DHT22;65033;44.660;37.758;2023-05-10T05:10:12;14.72;61.36
75985;DHT22;65033;44.660;37.758;2023-05-10T05:11:19;14.58;61.62
75985;DHT22;65033;44.660;37.758;2023-05-10T05:12:27;14.44;62.47
75985;DHT22;65033;44.660;37.758;2023-05-10T05:13:34;14.35;62.37
75985;DHT22;65033;44.660;37.758;2023-05-10T05:14:45;14.23;62.81
75985;DHT22;65033;44.660;37.758;2023-05-10T05:16:00;14.07;62.44
75985;DHT22;65033;44.660;37.758;2023-05-10T05:17:15;13.94;62.75
75985;DHT22;65033;44.660;37.758;2023-05-10T05:18:36;13.83;62.94
75985;DHT22;65033;44.660;37.758;2023-05-10T05:19:49;13.76;63.75
75985;DHT22;65033;44.660;37.758;2023-05-10T05:21:16;13.66;63.53
75985;DHT22;65033;44.660;37.758;2023-05-10T05:23:07;13.54;64.14
75985;DHT22;65033;44.660;37.758;2023-05-10T05:24:18;13.45;64.66
75985;DHT22;65033;44.660;37.758;2023-05-10T05:25:27;13.36;65.13
75985;DHT22;65033;44.660;37.758;2023-05-10T05:26:43;13.30;65.04
75985;DHT22;65033;44.660;37.758;2023-05-10T05:27:52;13.60;84.52
75985;DHT22;65033;44.660;37.758;2023-05-10T05:28:57;14.37;89.25
75985;DHT22;65033;44.660;37.758;2023-05-10T05:30:05;14.67;66.96
75985;DHT22;65033;44.660;37.758;2023-05-10T05:31:13;14.67;62.02
75985;DHT22;65033;44.660;37.758;2023-05-10T05:32:22;14.60;61.32
75985;DHT22;65033;44.660;37.758;2023-05-10T05:33:28;14.57;61.70
75985;DHT22;65033;44.660;37.758;2023-05-10T05:34:46;14.49;60.86
75985;DHT22;65033;44.660;37.758;2023-05-10T05:35:51;14.37;60.86
75985;DHT22;65033;44.660;37.758;2023-05-10T05:36:55;14.29;61.04
75985;DHT22;65033;44.660;37.758;2023-05-10T05:37:59;14.24;60.73
75985;DHT22;65033;44.660;37.758;2023-05-10T05:39:04;14.19;61.12
75985;DHT22;65033;44.660;37.758;2023-05-10T05:40:14;14.17;61.47
75985;DHT22;65033;44.660;37.758;2023-05-10T05:41:36;14.17;61.41
75985;DHT22;65033;44.660;37.758;2023-05-10T05:42:42;14.15;61.56
75985;DHT22;65033;44.660;37.758;2023-05-10T05:43:45;14.13;61.35
75985;DHT22;65033;44.660;37.758;2023-05-10T05:44:49;14.11;60.62
75985;DHT22;65033;44.660;37.758;2023-05-10T05:45:56;14.07;61.21
75985;DHT22;65033;44.660;37.758;2023-05-10T05:47:12;14.04;60.71
75985;DHT22;65033;44.660;37.758;2023-05-10T05:48:54;14.00;59.54
75985;DHT22;65033;44.660;37.758;2023-05-10T05:50:05;13.93;60.41
75985;DHT22;65033;44.660;37.758;2023-05-10T05:51:16;14.11;80.99
75985;DHT22;65033;44.660;37.758;2023-05-10T05:52:20;14.88;88.47
75985;DHT22;65033;44.660;37.758;2023-05-10T05:53:24;14.77;59.62
75985;DHT22;65033;44.660;37.758;2023-05-10T05:54:29;14.70;58.44
75985;DHT22;65033;44.660;37.758;2023-05-10T05:55:37;14.54;58.61
75985;DHT22;65033;44.660;37.758;2023-05-10T05:56:53;14.41;59.12
75985;DHT22;65033;44.660;37.758;2023-05-10T05:58:06;14.26;59.48
75985;DHT22;65033;44.660;37.758;2023-05-10T05:59:12;14.21;60.59
75985;DHT22;65033;44.660;37.758;2023-05-10T06:00:19;14.17;59.92
75985;DHT22;65033;44.660;37.758;2023-05-10T06:01:36;14.15;60.04
75985;DHT22;65033;44.660;37.758;2023-05-10T06:02:47;14.14;59.94
75985;DHT22;65033;44.660;37.758;2023-05-10T06:04:06;14.10;58.11
75985;DHT22;65033;44.660;37.758;2023-05-10T06:05:24;13.99;58.87
75985;DHT22;65033;44.660;37.758;2023-05-10T06:06:41;13.91;58.78
75985;DHT22;65033;44.660;37.758;2023-05-10T06:07:50;13.86;59.16
75985;DHT22;65033;44.660;37.758;2023-05-10T06:10:28;13.80;59.10
75985;DHT22;65033;44.660;37.758;2023-05-10T06:11:42;13.81;59.49
75985;DHT22;65033;44.660;37.758;2023-05-10T06:13:32;13.84;60.54
75985;DHT22;65033;44.660;37.758;2023-05-10T06:15:07;13.85;59.37
75985;DHT22;65033;44.660;37.758;2023-05-10T06:16:12;13.91;59.64
75985;DHT22;65033;44.660;37.758;2023-05-10T06:17:23;13.99;59.96
75985;DHT22;65033;44.660;37.758;2023-05-10T06:18:36;14.06;59.54
75985;DHT22;65033;44.660;37.758;2023-05-10T06:19:52;14.12;59.79
75985;DHT22;65033;44.660;37.758;2023-05-10T06:21:23;14.22;59.13
75985;DHT22;65033;44.660;37.758;2023-05-10T06:22:41;14.29;59.15
75985;DHT22;65033;44.660;37.758;2023-05-10T06:23:51;14.37;58.68
75985;DHT22;65033;44.660;37.758;2023-05-10T06:24:59;14.44;58.59
75985;DHT22;65033;44.660;37.758;2023-05-10T06:26:04;14.49;58.00
75985;DHT22;65033;44.660;37.758;2023-05-10T06:27:13;14.54;58.13
75985;DHT22;65033;44.660;37.758;2023-05-10T06:28:22;14.64;58.12
75985;DHT22;65033;44.660;37.758;2023-05-10T06:29:31;14.68;57.15
75985;DHT22;65033;44.660;37.758;2023-05-10T06:30:52;14.73;56.87
75985;DHT22;65033;44.660;37.758;2023-05-10T06:32:16;14.78;57.16
75985;DHT22;65033;44.660;37.758;2023-05-10T06:33:32;14.82;57.29
75985;DHT22;65033;44.660;37.758;2023-05-10T06:34:51;14.84;56.94
75985;DHT22;65033;44.660;37.758;2023-05-10T06:36:20;14.89;56.56
75985;DHT22;65033;44.660;37.758;2023-05-10T06:37:28;14.88;55.37
75985;DHT22;65033;44.660;37.758;2023-05-10T06:38:54;14.91;55.99
75985;DHT22;65033;44.660;37.758;2023-05-10T06:40:00;14.95;56.13
75985;DHT22;65033;44.660;37.758;2023-05-10T06:41:08;14.99;55.69
75985;DHT22;65033;44.660;37.758;2023-05-10T06:42:15;14.99;54.67
75985;DHT22;65033;44.660;37.758;2023-05-10T06:43:23;15.01;54.97
75985;DHT22;65033;44.660;37.758;2023-05-10T06:44:31;15.52;84.90
75985;DHT22;65033;44.660;37.758;2023-05-10T06:45:35;16.20;89.00
75985;DHT22;65033;44.660;37.758;2023-05-10T06:46:41;16.11;55.20
75985;DHT22;65033;44.660;37.758;2023-05-10T06:47:46;16.06;52.52
75985;DHT22;65033;44.660;37.758;2023-05-10T06:48:52;16.01;52.76
75985;DHT22;65033;44.660;37.758;2023-05-10T06:49:59;15.97;52.48
75985;DHT22;65033;44.660;37.758;2023-05-10T06:51:10;15.87;51.69
75985;DHT22;65033;44.660;37.758;2023-05-10T06:52:15;15.77;51.47
75985;DHT22;65033;44.660;37.758;2023-05-10T06:53:35;15.68;52.53
75985;DHT22;65033;44.660;37.758;2023-05-10T06:54:46;15.61;52.06
75985;DHT22;65033;44.660;37.758;2023-05-10T06:55:54;15.53;52.64
75985;DHT22;65033;44.660;37.758;2023-05-10T06:57:00;15.42;52.62
75985;DHT22;65033;44.660;37.758;2023-05-10T06:58:09;15.38;52.46
75985;DHT22;65033;44.660;37.758;2023-05-10T06:59:16;15.39;53.40
75985;DHT22;65033;44.660;37.758;2023-05-10T07:00:28;15.45;52.73
75985;DHT22;65033;44.660;37.758;2023-05-10T07:01:35;15.51;51.99
75985;DHT22;65033;44.660;37.758;2023-05-10T07:02:39;15.61;52.61
75985;DHT22;65033;44.660;37.758;2023-05-10T07:03:45;15.69;52.47
75985;DHT22;65033;44.660;37.758;2023-05-10T07:04:53;15.77;54.08
75985;DHT22;65033;44.660;37.758;2023-05-10T07:06:01;15.88;53.14
75985;DHT22;65033;44.660;37.758;2023-05-10T07:07:07;15.96;51.53
75985;DHT22;65033;44.660;37.758;2023-05-10T07:08:23;16.00;51.18
75985;DHT22;65033;44.660;37.758;2023-05-10T07:09:28;16.07;51.00
75985;DHT22;65033;44.660;37.758;2023-05-10T07:10:32;16.15;50.32
75985;DHT22;65033;44.660;37.758;2023-05-10T07:11:46;16.21;50.43
75985;DHT22;65033;44.660;37.758;2023-05-10T07:13:09;16.24;50.78
75985;DHT22;65033;44.660;37.758;2023-05-10T07:14:15;16.27;49.97
75985;DHT22;65033;44.660;37.758;2023-05-10T07:15:20;16.35;50.03
75985;DHT22;65033;44.660;37.758;2023-05-10T07:16:32;16.43;50.03
75985;DHT22;65033;44.660;37.758;2023-05-10T07:17:46;16.54;50.99
75985;DHT22;65033;44.660;37.758;2023-05-10T07:18:50;16.57;49.12
75985;DHT22;65033;44.660;37.758;2023-05-10T07:19:55;16.59;49.21
75985;DHT22;65033;44.660;37.758;2023-05-10T07:21:10;16.61;48.10
75985;DHT22;65033;44.660;37.758;2023-05-10T07:22:16;16.59;48.24
75985;DHT22;65033;44.660;37.758;2023-05-10T07:23:21;16.55;48.39
75985;DHT22;65033;44.660;37.758;2023-05-10T07:24:28;16.57;48.09
75985;DHT22;65033;44.660;37.758;2023-05-10T07:25:33;16.60;49.87
75985;DHT22;65033;44.660;37.758;2023-05-10T07:26:37;16.63;47.13
75985;DHT22;65033;44.660;37.758;2023-05-10T07:27:44;16.67;48.13
75985;DHT22;65033;44.660;37.758;2023-05-10T07:28:47;16.69;49.01
75985;DHT22;65033;44.660;37.758;2023-05-10T07:29:52;16.73;48.30
75985;DHT22;65033;44.660;37.758;2023-05-10T07:31:04;16.72;48.37
75985;DHT22;65033;44.660;37.758;2023-05-10T07:32:11;16.79;48.60
75985;DHT22;65033;44.660;37.758;2023-05-10T07:33:18;16.81;47.73
75985;DHT22;65033;44.660;37.758;2023-05-10T07:34:28;16.84;46.83